sensor_id;sensor_type;location;lat;lon;timestamp;P1;durP1;ratioP1;P2;durP2;ratioP2
2055;SDS011;1033;52.560;13.374;2023-05-23T00:01:07;6.77;;;6.10;;
2055;SDS011;1033;52.560;13.374;2023-05-23T00:03:40;8.63;;;6.07;;
2055;SDS011;1033;52.560;13.374;2023-05-23T00:06:12;9.07;;;5.37;;
2055;SDS011;1033;52.560;13.374;2023-05-23T00:08:42;6.80;;;5.77;;
2055;SDS011;1033;52.560;13.374;2023-05-23T00:11:12;7.50;;;6.40;;
2055;SDS011;1033;52.560;13.374;2023-05-23T00:13:41;7.07;;;5.60;;
2055;SDS011;1033;52.560;13.374;2023-05-23T00:16:17;7.13;;;6.40;;
2055;SDS011;1033;52.560;13.374;2023-05-23T00:18:51;10.03;;;4.40;;
2055;SDS011;1033;52.560;13.374;2023-05-23T00:21:27;6.97;;;5.77;;
2055;SDS011;1033;52.560;13.374;2023-05-23T00:23:59;6.97;;;6.03;;
2055;SDS011;1033;52.560;13.374;2023-05-23T00:26:31;6.97;;;5.57;;
2055;SDS011;1033;52.560;13.374;2023-05-23T00:29:04;6.77;;;5.73;;
2055;SDS011;1033;52.560;13.374;2023-05-23T00:31:34;7.53;;;5.13;;
2055;SDS011;1033;52.560;13.374;2023-05-23T00:34:04;7.33;;;5.40;;
2055;SDS011;1033;52.560;13.374;2023-05-23T00:36:35;7.23;;;5.23;;
2055;SDS011;1033;52.560;13.374;2023-05-23T00:39:05;9.77;;;5.63;;
2055;SDS011;1033;52.560;13.374;2023-05-23T00:41:34;7.00;;;5.03;;
2055;SDS011;1033;52.560;13.374;2023-05-23T00:44:05;5.73;;;4.73;;
2055;SDS011;1033;52.560;13.374;2023-05-23T00:46:36;5.50;;;4.60;;
2055;SDS011;1033;52.560;13.374;2023-05-23T00:49:06;6.63;;;5.50;;
2055;SDS011;1033;52.560;13.374;2023-05-23T00:51:40;8.50;;;7.40;;
2055;SDS011;1033;52.560;13.374;2023-05-23T00:54:10;10.90;;;9.80;;
2055;SDS011;1033;52.560;13.374;2023-05-23T00:56:42;6.60;;;5.73;;
2055;SDS011;1033;52.560;13.374;2023-05-23T00:59:12;9.43;;;7.30;;
2055;SDS011;1033;52.560;13.374;2023-05-23T01:01:43;7.20;;;5.83;;
2055;SDS011;1033;52.560;13.374;2023-05-23T01:04:13;6.00;;;5.40;;
2055;SDS011;1033;52.560;13.374;2023-05-23T01:06:48;6.30;;;5.47;;
2055;SDS011;1033;52.560;13.374;2023-05-23T01:09:18;5.53;;;4.83;;
2055;SDS011;1033;52.560;13.374;2023-05-23T01:11:53;6.90;;;6.17;;
2055;SDS011;1033;52.560;13.374;2023-05-23T01:14:34;5.60;;;5.10;;
2055;SDS011;1033;52.560;13.374;2023-05-23T01:17:12;6.73;;;6.03;;
2055;SDS011;1033;52.560;13.374;2023-05-23T01:22:40;12.23;;;6.13;;
2055;SDS011;1033;52.560;13.374;2023-05-23T01:25:37;7.50;;;5.57;;
2055;SDS011;1033;52.560;13.374;2023-05-23T01:28:21;7.40;;;5.63;;
2055;SDS011;1033;52.560;13.374;2023-05-23T01:30:56;6.77;;;5.80;;
2055;SDS011;1033;52.560;13.374;2023-05-23T01:33:27;6.93;;;5.73;;
2055;SDS011;1033;52.560;13.374;2023-05-23T01:36:00;10.17;;;5.83;;
2055;SDS011;1033;52.560;13.374;2023-05-23T01:38:30;6.73;;;5.83;;
2055;SDS011;1033;52.560;13.374;2023-05-23T01:41:00;8.47;;;5.87;;
2055;SDS011;1033;52.560;13.374;2023-05-23T01:43:31;7.50;;;5.33;;
2055;SDS011;1033;52.560;13.374;2023-05-23T01:46:02;7.90;;;5.80;;
2055;SDS011;1033;52.560;13.374;2023-05-23T01:48:38;6.30;;;4.53;;
2055;SDS011;1033;52.560;13.374;2023-05-23T01:51:08;5.60;;;4.80;;
2055;SDS011;1033;52.560;13.374;2023-05-23T01:53:39;6.77;;;5.10;;
2055;SDS011;1033;52.560;13.374;2023-05-23T01:56:11;7.30;;;5.77;;
2055;SDS011;1033;52.560;13.374;2023-05-23T01:58:42;10.83;;;5.90;;
2055;SDS011;1033;52.560;13.374;2023-05-23T02:01:12;6.50;;;5.80;;
2055;SDS011;1033;52.560;13.374;2023-05-23T02:03:42;8.30;;;5.83;;
2055;SDS011;1033;52.560;13.374;2023-05-23T02:06:12;15.90;;;6.10;;
2055;SDS011;1033;52.560;13.374;2023-05-23T02:08:45;6.07;;;5.33;;
2055;SDS011;1033;52.560;13.374;2023-05-23T02:11:15;7.33;;;6.23;;
2055;SDS011;1033;52.560;13.374;2023-05-23T02:13:47;7.93;;;5.80;;
2055;SDS011;1033;52.560;13.374;2023-05-23T02:16:17;7.50;;;6.10;;
2055;SDS011;1033;52.560;13.374;2023-05-23T02:18:49;10.07;;;7.30;;
2055;SDS011;1033;52.560;13.374;2023-05-23T02:21:22;7.80;;;6.47;;
2055;SDS011;1033;52.560;13.374;2023-05-23T02:23:51;8.67;;;7.20;;
2055;SDS011;1033;52.560;13.374;2023-05-23T02:26:21;7.27;;;6.30;;
2055;SDS011;1033;52.560;13.374;2023-05-23T02:28:52;6.83;;;6.23;;
2055;SDS011;1033;52.560;13.374;2023-05-23T02:31:23;8.27;;;6.53;;
2055;SDS011;1033;52.560;13.374;2023-05-23T02:33:53;6.33;;;5.10;;
2055;SDS011;1033;52.560;13.374;2023-05-23T02:36:23;7.77;;;6.90;;
2055;SDS011;1033;52.560;13.374;2023-05-23T02:38:53;10.93;;;6.93;;
2055;SDS011;1033;52.560;13.374;2023-05-23T02:41:23;6.97;;;6.20;;
2055;SDS011;1033;52.560;13.374;2023-05-23T02:43:55;9.73;;;6.87;;
2055;SDS011;1033;52.560;13.374;2023-05-23T02:46:25;7.90;;;7.13;;
2055;SDS011;1033;52.560;13.374;2023-05-23T02:48:54;7.40;;;6.70;;
2055;SDS011;1033;52.560;13.374;2023-05-23T02:51:25;8.67;;;7.57;;
2055;SDS011;1033;52.560;13.374;2023-05-23T02:53:55;8.53;;;6.97;;
2055;SDS011;1033;52.560;13.374;2023-05-23T02:56:25;9.47;;;6.50;;
2055;SDS011;1033;52.560;13.374;2023-05-23T02:58:56;12.03;;;7.27;;
2055;SDS011;1033;52.560;13.374;2023-05-23T03:01:26;9.10;;;6.73;;
2055;SDS011;1033;52.560;13.374;2023-05-23T03:03:56;8.77;;;7.30;;
2055;SDS011;1033;52.560;13.374;2023-05-23T03:06:26;8.83;;;6.73;;
2055;SDS011;1033;52.560;13.374;2023-05-23T03:08:59;8.43;;;6.53;;
2055;SDS011;1033;52.560;13.374;2023-05-23T03:11:30;6.20;;;5.67;;
2055;SDS011;1033;52.560;13.374;2023-05-23T03:14:01;12.37;;;6.37;;
2055;SDS011;1033;52.560;13.374;2023-05-23T03:16:32;7.20;;;5.67;;
2055;SDS011;1033;52.560;13.374;2023-05-23T03:19:02;10.13;;;6.17;;
2055;SDS011;1033;52.560;13.374;2023-05-23T03:21:32;6.13;;;5.53;;
2055;SDS011;1033;52.560;13.374;2023-05-23T03:24:02;7.63;;;6.07;;
2055;SDS011;1033;52.560;13.374;2023-05-23T03:26:32;8.27;;;5.30;;
2055;SDS011;1033;52.560;13.374;2023-05-23T03:29:03;8.00;;;5.53;;
2055;SDS011;1033;52.560;13.374;2023-05-23T03:31:33;7.13;;;5.83;;
2055;SDS011;1033;52.560;13.374;2023-05-23T03:34:03;11.30;;;6.80;;
2055;SDS011;1033;52.560;13.374;2023-05-23T03:36:33;7.10;;;6.40;;
2055;SDS011;1033;52.560;13.374;2023-05-23T03:39:05;8.80;;;7.27;;
2055;SDS011;1033;52.560;13.374;2023-05-23T03:41:40;7.07;;;6.10;;
2055;SDS011;1033;52.560;13.374;2023-05-23T03:44:11;9.03;;;7.30;;
2055;SDS011;1033;52.560;13.374;2023-05-23T03:46:41;9.73;;;6.43;;
2055;SDS011;1033;52.560;13.374;2023-05-23T03:49:13;10.70;;;7.37;;
2055;SDS011;1033;52.560;13.374;2023-05-23T03:51:46;9.73;;;6.40;;
2055;SDS011;1033;52.560;13.374;2023-05-23T03:54:16;6.90;;;5.97;;
2055;SDS011;1033;52.560;13.374;2023-05-23T03:56:56;6.60;;;5.73;;
2055;SDS011;1033;52.560;13.374;2023-05-23T03:59:30;6.97;;;6.37;;
2055;SDS011;1033;52.560;13.374;2023-05-23T04:02:05;7.33;;;6.47;;
2055;SDS011;1033;52.560;13.374;2023-05-23T04:04:35;9.30;;;7.50;;
2055;SDS011;1033;52.560;13.374;2023-05-23T04:07:05;7.27;;;6.67;;
2055;SDS011;1033;52.560;13.374;2023-05-23T04:09:39;10.67;;;7.53;;
2055;SDS011;1033;52.560;13.374;2023-05-23T04:12:10;8.30;;;6.40;;
2055;SDS011;1033;52.560;13.374;2023-05-23T04:14:41;6.30;;;5.63;;
2055;SDS011;1033;52.560;13.374;2023-05-23T04:17:12;10.53;;;7.60;;
2055;SDS011;1033;52.560;13.374;2023-05-23T04:19:42;8.77;;;7.07;;
2055;SDS011;1033;52.560;13.374;2023-05-23T04:22:12;12.20;;;7.60;;
2055;SDS011;1033;52.560;13.374;2023-05-23T04:24:43;8.80;;;7.83;;
2055;SDS011;1033;52.560;13.374;2023-05-23T04:27:12;6.20;;;5.60;;
2055;SDS011;1033;52.560;13.374;2023-05-23T04:29:43;7.77;;;6.40;;
2055;SDS011;1033;52.560;13.374;2023-05-23T04:32:14;9.00;;;8.10;;
2055;SDS011;1033;52.560;13.374;2023-05-23T04:34:45;7.23;;;6.50;;
2055;SDS011;1033;52.560;13.374;2023-05-23T04:37:16;7.47;;;6.57;;
2055;SDS011;1033;52.560;13.374;2023-05-23T04:39:48;9.77;;;6.60;;
2055;SDS011;1033;52.560;13.374;2023-05-23T04:42:36;9.00;;;6.80;;
2055;SDS011;1033;52.560;13.374;2023-05-23T04:45:21;9.90;;;7.80;;
2055;SDS011;1033;52.560;13.374;2023-05-23T04:48:08;9.97;;;7.00;;
2055;SDS011;1033;52.560;13.374;2023-05-23T04:50:41;15.23;;;7.13;;
2055;SDS011;1033;52.560;13.374;2023-05-23T04:53:13;9.03;;;7.80;;
2055;SDS011;1033;52.560;13.374;2023-05-23T04:55:44;12.17;;;8.60;;
2055;SDS011;1033;52.560;13.374;2023-05-23T04:58:16;8.10;;;7.30;;
2055;SDS011;1033;52.560;13.374;2023-05-23T05:00:47;7.53;;;6.00;;
2055;SDS011;1033;52.560;13.374;2023-05-23T05:03:17;8.43;;;7.47;;
2055;SDS011;1033;52.560;13.374;2023-05-23T05:05:47;10.10;;;8.00;;
2055;SDS011;1033;52.560;13.374;2023-05-23T05:08:16;10.17;;;8.03;;
2055;SDS011;1033;52.560;13.374;2023-05-23T05:10:46;8.50;;;7.70;;
2055;SDS011;1033;52.560;13.374;2023-05-23T05:13:18;11.40;;;8.93;;
2055;SDS011;1033;52.560;13.374;2023-05-23T05:15:51;10.50;;;6.97;;
2055;SDS011;1033;52.560;13.374;2023-05-23T05:18:22;11.00;;;8.10;;
2055;SDS011;1033;52.560;13.374;2023-05-23T05:20:54;8.97;;;7.53;;
2055;SDS011;1033;52.560;13.374;2023-05-23T05:23:24;9.70;;;7.50;;
2055;SDS011;1033;52.560;13.374;2023-05-23T05:25:55;9.70;;;7.23;;
2055;SDS011;1033;52.560;13.374;2023-05-23T05:28:26;8.97;;;7.77;;
2055;SDS011;1033;52.560;13.374;2023-05-23T05:30:57;8.23;;;7.33;;
2055;SDS011;1033;52.560;13.374;2023-05-23T05:33:33;8.27;;;6.70;;
2055;SDS011;1033;52.560;13.374;2023-05-23T05:36:11;8.00;;;7.20;;
2055;SDS011;1033;52.560;13.374;2023-05-23T05:38:42;8.10;;;7.30;;
2055;SDS011;1033;52.560;13.374;2023-05-23T05:41:11;7.80;;;6.27;;
2055;SDS011;1033;52.560;13.374;2023-05-23T05:43:45;8.23;;;7.43;;
2055;SDS011;1033;52.560;13.374;2023-05-23T05:46:16;10.60;;;7.40;;
2055;SDS011;1033;52.560;13.374;2023-05-23T05:48:46;8.10;;;6.57;;
2055;SDS011;1033;52.560;13.374;2023-05-23T05:51:16;14.20;;;7.17;;
2055;SDS011;1033;52.560;13.374;2023-05-23T05:53:45;11.53;;;6.43;;
2055;SDS011;1033;52.560;13.374;2023-05-23T05:56:15;7.93;;;6.97;;
2055;SDS011;1033;52.560;13.374;2023-05-23T05:58:44;7.60;;;6.90;;
2055;SDS011;1033;52.560;13.374;2023-05-23T06:01:16;8.30;;;6.93;;
2055;SDS011;1033;52.560;13.374;2023-05-23T06:03:45;10.93;;;7.43;;
2055;SDS011;1033;52.560;13.374;2023-05-23T06:06:16;8.50;;;6.70;;
2055;SDS011;1033;52.560;13.374;2023-05-23T06:08:46;7.27;;;6.57;;
2055;SDS011;1033;52.560;13.374;2023-05-23T06:11:16;10.93;;;7.40;;
2055;SDS011;1033;52.560;13.374;2023-05-23T06:13:45;7.43;;;6.40;;
2055;SDS011;1033;52.560;13.374;2023-05-23T06:16:16;13.73;;;7.30;;
2055;SDS011;1033;52.560;13.374;2023-05-23T06:18:45;13.63;;;7.90;;
2055;SDS011;1033;52.560;13.374;2023-05-23T06:21:14;8.10;;;7.33;;
2055;SDS011;1033;52.560;13.374;2023-05-23T06:23:47;11.03;;;7.30;;
2055;SDS011;1033;52.560;13.374;2023-05-23T06:26:16;8.67;;;6.87;;
2055;SDS011;1033;52.560;13.374;2023-05-23T06:28:45;8.30;;;7.50;;
2055;SDS011;1033;52.560;13.374;2023-05-23T06:31:16;10.03;;;7.80;;
2055;SDS011;1033;52.560;13.374;2023-05-23T06:33:45;10.93;;;7.70;;
2055;SDS011;1033;52.560;13.374;2023-05-23T06:36:16;10.60;;;7.90;;
2055;SDS011;1033;52.560;13.374;2023-05-23T06:38:47;10.77;;;7.37;;
2055;SDS011;1033;52.560;13.374;2023-05-23T06:41:16;18.53;;;16.73;;
2055;SDS011;1033;52.560;13.374;2023-05-23T06:43:45;12.83;;;9.00;;
2055;SDS011;1033;52.560;13.374;2023-05-23T06:46:23;11.53;;;8.93;;
2055;SDS011;1033;52.560;13.374;2023-05-23T06:48:52;11.30;;;8.07;;
2055;SDS011;1033;52.560;13.374;2023-05-23T06:51:41;11.23;;;7.07;;
2055;SDS011;1033;52.560;13.374;2023-05-23T06:54:10;15.23;;;9.23;;
2055;SDS011;1033;52.560;13.374;2023-05-23T06:56:40;24.67;;;22.97;;
2055;SDS011;1033;52.560;13.374;2023-05-23T06:59:09;8.80;;;7.63;;
2055;SDS011;1033;52.560;13.374;2023-05-23T07:01:40;8.17;;;7.17;;
2055;SDS011;1033;52.560;13.374;2023-05-23T07:04:09;10.40;;;7.77;;
2055;SDS011;1033;52.560;13.374;2023-05-23T07:06:39;10.67;;;9.60;;
2055;SDS011;1033;52.560;13.374;2023-05-23T07:09:08;15.03;;;13.63;;
2055;SDS011;1033;52.560;13.374;2023-05-23T07:11:39;11.60;;;7.90;;
2055;SDS011;1033;52.560;13.374;2023-05-23T07:14:09;10.53;;;8.50;;
2055;SDS011;1033;52.560;13.374;2023-05-23T07:19:18;9.37;;;8.23;;
2055;SDS011;1033;52.560;13.374;2023-05-23T07:21:49;9.47;;;8.10;;
2055;SDS011;1033;52.560;13.374;2023-05-23T07:24:19;12.20;;;8.80;;
2055;SDS011;1033;52.560;13.374;2023-05-23T07:26:53;12.27;;;9.30;;
2055;SDS011;1033;52.560;13.374;2023-05-23T07:29:24;11.70;;;8.40;;
2055;SDS011;1033;52.560;13.374;2023-05-23T07:31:54;13.33;;;9.13;;
2055;SDS011;1033;52.560;13.374;2023-05-23T07:34:25;11.43;;;8.30;;
2055;SDS011;1033;52.560;13.374;2023-05-23T07:36:58;8.87;;;7.33;;
2055;SDS011;1033;52.560;13.374;2023-05-23T07:39:34;8.17;;;7.37;;
2055;SDS011;1033;52.560;13.374;2023-05-23T07:42:04;13.17;;;8.80;;
2055;SDS011;1033;52.560;13.374;2023-05-23T07:44:33;12.27;;;9.43;;
2055;SDS011;1033;52.560;13.374;2023-05-23T07:47:04;10.90;;;8.30;;
2055;SDS011;1033;52.560;13.374;2023-05-23T07:49:33;10.80;;;7.07;;
2055;SDS011;1033;52.560;13.374;2023-05-23T07:52:03;9.70;;;8.70;;
2055;SDS011;1033;52.560;13.374;2023-05-23T07:54:34;7.67;;;6.80;;
2055;SDS011;1033;52.560;13.374;2023-05-23T07:57:04;10.90;;;7.97;;
2055;SDS011;1033;52.560;13.374;2023-05-23T07:59:36;8.83;;;7.93;;
2055;SDS011;1033;52.560;13.374;2023-05-23T08:02:07;8.60;;;7.10;;
2055;SDS011;1033;52.560;13.374;2023-05-23T08:04:36;10.90;;;8.50;;
2055;SDS011;1033;52.560;13.374;2023-05-23T08:07:07;9.47;;;8.50;;
2055;SDS011;1033;52.560;13.374;2023-05-23T08:09:44;8.53;;;7.73;;
2055;SDS011;1033;52.560;13.374;2023-05-23T08:12:17;11.97;;;8.17;;
2055;SDS011;1033;52.560;13.374;2023-05-23T08:17:29;11.60;;;7.00;;
2055;SDS011;1033;52.560;13.374;2023-05-23T08:19:58;8.00;;;7.10;;
2055;SDS011;1033;52.560;13.374;2023-05-23T08:22:29;11.13;;;6.80;;
2055;SDS011;1033;52.560;13.374;2023-05-23T08:24:58;8.93;;;8.10;;
2055;SDS011;1033;52.560;13.374;2023-05-23T08:27:30;13.60;;;7.10;;
2055;SDS011;1033;52.560;13.374;2023-05-23T08:30:05;10.60;;;7.27;;
2055;SDS011;1033;52.560;13.374;2023-05-23T08:32:38;9.33;;;8.23;;
2055;SDS011;1033;52.560;13.374;2023-05-23T08:35:07;8.63;;;7.83;;
2055;SDS011;1033;52.560;13.374;2023-05-23T08:37:39;9.27;;;8.10;;
2055;SDS011;1033;52.560;13.374;2023-05-23T08:40:11;10.80;;;8.30;;
2055;SDS011;1033;52.560;13.374;2023-05-23T08:42:53;23.17;;;9.93;;
2055;SDS011;1033;52.560;13.374;2023-05-23T08:45:23;15.97;;;8.83;;
2055;SDS011;1033;52.560;13.374;2023-05-23T08:47:54;9.77;;;8.60;;
2055;SDS011;1033;52.560;13.374;2023-05-23T08:50:29;10.30;;;9.30;;
2055;SDS011;1033;52.560;13.374;2023-05-23T08:52:58;10.93;;;8.83;;
2055;SDS011;1033;52.560;13.374;2023-05-23T08:55:30;9.63;;;8.73;;
2055;SDS011;1033;52.560;13.374;2023-05-23T08:58:00;10.23;;;9.20;;
2055;SDS011;1033;52.560;13.374;2023-05-23T09:00:39;9.17;;;8.37;;
2055;SDS011;1033;52.560;13.374;2023-05-23T09:03:11;9.50;;;8.70;;
2055;SDS011;1033;52.560;13.374;2023-05-23T09:05:50;10.60;;;8.20;;
2055;SDS011;1033;52.560;13.374;2023-05-23T09:08:21;9.13;;;8.23;;
2055;SDS011;1033;52.560;13.374;2023-05-23T09:10:55;8.73;;;8.00;;
2055;SDS011;1033;52.560;13.374;2023-05-23T09:13:25;8.40;;;7.50;;
2055;SDS011;1033;52.560;13.374;2023-05-23T09:16:00;9.00;;;8.10;;
2055;SDS011;1033;52.560;13.374;2023-05-23T09:18:38;9.20;;;8.10;;
2055;SDS011;1033;52.560;13.374;2023-05-23T09:21:11;11.10;;;8.73;;
2055;SDS011;1033;52.560;13.374;2023-05-23T09:23:54;11.27;;;8.87;;
2055;SDS011;1033;52.560;13.374;2023-05-23T09:26:25;9.10;;;8.20;;
2055;SDS011;1033;52.560;13.374;2023-05-23T09:28:56;9.53;;;8.50;;
2055;SDS011;1033;52.560;13.374;2023-05-23T09:31:26;10.03;;;9.00;;
2055;SDS011;1033;52.560;13.374;2023-05-23T09:33:57;10.20;;;9.30;;
2055;SDS011;1033;52.560;13.374;2023-05-23T09:36:28;11.07;;;9.97;;
2055;SDS011;1033;52.560;13.374;2023-05-23T09:39:01;14.80;;;9.93;;
2055;SDS011;1033;52.560;13.374;2023-05-23T09:41:32;10.03;;;9.13;;
2055;SDS011;1033;52.560;13.374;2023-05-23T09:44:06;9.40;;;8.57;;
2055;SDS011;1033;52.560;13.374;2023-05-23T09:46:36;9.50;;;8.57;;
2055;SDS011;1033;52.560;13.374;2023-05-23T09:49:17;9.60;;;8.70;;
2055;SDS011;1033;52.560;13.374;2023-05-23T09:51:57;10.97;;;9.20;;
2055;SDS011;1033;52.560;13.374;2023-05-23T09:54:26;9.97;;;8.97;;
2055;SDS011;1033;52.560;13.374;2023-05-23T09:56:56;9.30;;;8.40;;
2055;SDS011;1033;52.560;13.374;2023-05-23T09:59:27;11.20;;;9.80;;
2055;SDS011;1033;52.560;13.374;2023-05-23T10:01:59;10.77;;;9.10;;
2055;SDS011;1033;52.560;13.374;2023-05-23T10:04:34;12.87;;;10.20;;
2055;SDS011;1033;52.560;13.374;2023-05-23T10:07:09;9.97;;;8.93;;
2055;SDS011;1033;52.560;13.374;2023-05-23T10:09:41;11.50;;;10.07;;
2055;SDS011;1033;52.560;13.374;2023-05-23T10:12:32;12.80;;;9.37;;
2055;SDS011;1033;52.560;13.374;2023-05-23T10:15:10;9.47;;;8.40;;
2055;SDS011;1033;52.560;13.374;2023-05-23T10:17:55;8.30;;;7.53;;
2055;SDS011;1033;52.560;13.374;2023-05-23T10:20:35;9.10;;;7.33;;
2055;SDS011;1033;52.560;13.374;2023-05-23T10:23:07;8.73;;;7.90;;
2055;SDS011;1033;52.560;13.374;2023-05-23T10:25:36;9.07;;;8.20;;
2055;SDS011;1033;52.560;13.374;2023-05-23T10:28:07;9.60;;;8.60;;
2055;SDS011;1033;52.560;13.374;2023-05-23T10:30:37;10.70;;;9.60;;
2055;SDS011;1033;52.560;13.374;2023-05-23T10:33:07;11.93;;;10.83;;
2055;SDS011;1033;52.560;13.374;2023-05-23T10:35:44;10.47;;;9.30;;
2055;SDS011;1033;52.560;13.374;2023-05-23T10:38:25;9.97;;;9.00;;
2055;SDS011;1033;52.560;13.374;2023-05-23T10:41:04;15.50;;;10.30;;
2055;SDS011;1033;52.560;13.374;2023-05-23T10:43:41;11.20;;;10.00;;
2055;SDS011;1033;52.560;13.374;2023-05-23T10:46:16;11.33;;;10.43;;
2055;SDS011;1033;52.560;13.374;2023-05-23T10:48:51;17.30;;;12.07;;
2055;SDS011;1033;52.560;13.374;2023-05-23T10:51:24;14.20;;;12.80;;
2055;SDS011;1033;52.560;13.374;2023-05-23T10:54:09;15.43;;;13.90;;
2055;SDS011;1033;52.560;13.374;2023-05-23T10:56:38;15.60;;;14.33;;
2055;SDS011;1033;52.560;13.374;2023-05-23T10:59:08;13.47;;;12.37;;
2055;SDS011;1033;52.560;13.374;2023-05-23T11:01:49;14.40;;;13.10;;
2055;SDS011;1033;52.560;13.374;2023-05-23T11:04:23;17.20;;;14.20;;
2055;SDS011;1033;52.560;13.374;2023-05-23T11:06:55;16.87;;;15.23;;
2055;SDS011;1033;52.560;13.374;2023-05-23T11:09:24;17.93;;;16.13;;
2055;SDS011;1033;52.560;13.374;2023-05-23T11:11:54;18.07;;;16.23;;
2055;SDS011;1033;52.560;13.374;2023-05-23T11:14:32;17.30;;;15.63;;
2055;SDS011;1033;52.560;13.374;2023-05-23T11:17:30;16.33;;;14.67;;
2055;SDS011;1033;52.560;13.374;2023-05-23T11:20:03;18.13;;;16.33;;
2055;SDS011;1033;52.560;13.374;2023-05-23T11:22:47;18.17;;;15.10;;
2055;SDS011;1033;52.560;13.374;2023-05-23T11:25:22;18.37;;;16.20;;
2055;SDS011;1033;52.560;13.374;2023-05-23T11:28:08;26.27;;;19.40;;
2055;SDS011;1033;52.560;13.374;2023-05-23T11:30:38;21.50;;;19.30;;
2055;SDS011;1033;52.560;13.374;2023-05-23T11:33:08;22.03;;;20.00;;
2055;SDS011;1033;52.560;13.374;2023-05-23T11:35:40;23.03;;;19.87;;
2055;SDS011;1033;52.560;13.374;2023-05-23T11:38:12;22.40;;;18.60;;
2055;SDS011;1033;52.560;13.374;2023-05-23T11:40:43;22.53;;;20.17;;
2055;SDS011;1033;52.560;13.374;2023-05-23T11:43:13;19.80;;;17.73;;
2055;SDS011;1033;52.560;13.374;2023-05-23T11:45:45;22.20;;;19.60;;
2055;SDS011;1033;52.560;13.374;2023-05-23T11:48:15;22.73;;;20.40;;
2055;SDS011;1033;52.560;13.374;2023-05-23T11:50:45;23.83;;;19.43;;
2055;SDS011;1033;52.560;13.374;2023-05-23T11:53:17;18.93;;;16.97;;
2055;SDS011;1033;52.560;13.374;2023-05-23T11:55:48;24.17;;;21.07;;
2055;SDS011;1033;52.560;13.374;2023-05-23T11:58:19;22.50;;;20.10;;
2055;SDS011;1033;52.560;13.374;2023-05-23T12:00:48;21.80;;;19.53;;
2055;SDS011;1033;52.560;13.374;2023-05-23T12:03:21;21.53;;;19.23;;
2055;SDS011;1033;52.560;13.374;2023-05-23T12:05:51;19.97;;;17.33;;
2055;SDS011;1033;52.560;13.374;2023-05-23T12:08:24;22.47;;;18.93;;
2055;SDS011;1033;52.560;13.374;2023-05-23T12:10:55;24.23;;;21.80;;
2055;SDS011;1033;52.560;13.374;2023-05-23T12:13:27;20.27;;;18.27;;
2055;SDS011;1033;52.560;13.374;2023-05-23T12:15:57;27.23;;;20.40;;
2055;SDS011;1033;52.560;13.374;2023-05-23T12:18:29;23.10;;;20.60;;
2055;SDS011;1033;52.560;13.374;2023-05-23T12:20:59;20.10;;;17.67;;
2055;SDS011;1033;52.560;13.374;2023-05-23T12:23:30;22.37;;;20.07;;
2055;SDS011;1033;52.560;13.374;2023-05-23T12:26:02;24.17;;;21.67;;
2055;SDS011;1033;52.560;13.374;2023-05-23T12:28:34;25.83;;;21.27;;
2055;SDS011;1033;52.560;13.374;2023-05-23T12:31:08;23.97;;;19.50;;
2055;SDS011;1033;52.560;13.374;2023-05-23T12:33:39;27.43;;;21.20;;
2055;SDS011;1033;52.560;13.374;2023-05-23T12:36:09;25.13;;;19.93;;
2055;SDS011;1033;52.560;13.374;2023-05-23T12:38:41;25.23;;;21.20;;
2055;SDS011;1033;52.560;13.374;2023-05-23T12:41:14;26.63;;;21.47;;
2055;SDS011;1033;52.560;13.374;2023-05-23T12:43:48;21.73;;;19.57;;
2055;SDS011;1033;52.560;13.374;2023-05-23T12:46:19;21.80;;;19.60;;
2055;SDS011;1033;52.560;13.374;2023-05-23T12:48:49;27.60;;;21.43;;
2055;SDS011;1033;52.560;13.374;2023-05-23T12:51:18;20.80;;;18.43;;
2055;SDS011;1033;52.560;13.374;2023-05-23T12:53:49;21.57;;;19.37;;
2055;SDS011;1033;52.560;13.374;2023-05-23T12:56:19;22.30;;;18.43;;
2055;SDS011;1033;52.560;13.374;2023-05-23T12:58:49;20.90;;;17.77;;
2055;SDS011;1033;52.560;13.374;2023-05-23T13:01:19;21.20;;;18.93;;
2055;SDS011;1033;52.560;13.374;2023-05-23T13:03:49;21.83;;;18.20;;
2055;SDS011;1033;52.560;13.374;2023-05-23T13:06:18;18.80;;;16.67;;
2055;SDS011;1033;52.560;13.374;2023-05-23T13:08:47;23.40;;;18.50;;
2055;SDS011;1033;52.560;13.374;2023-05-23T13:11:20;24.33;;;20.10;;
2055;SDS011;1033;52.560;13.374;2023-05-23T13:13:49;22.93;;;19.40;;
2055;SDS011;1033;52.560;13.374;2023-05-23T13:16:19;21.30;;;18.80;;
2055;SDS011;1033;52.560;13.374;2023-05-23T13:18:48;24.83;;;17.97;;
2055;SDS011;1033;52.560;13.374;2023-05-23T13:21:18;25.67;;;19.27;;
2055;SDS011;1033;52.560;13.374;2023-05-23T13:23:47;22.40;;;20.00;;
2055;SDS011;1033;52.560;13.374;2023-05-23T13:26:18;23.20;;;20.03;;
2055;SDS011;1033;52.560;13.374;2023-05-23T13:28:48;24.57;;;19.33;;
2055;SDS011;1033;52.560;13.374;2023-05-23T13:31:18;25.77;;;21.07;;
2055;SDS011;1033;52.560;13.374;2023-05-23T13:33:47;24.00;;;20.67;;
2055;SDS011;1033;52.560;13.374;2023-05-23T13:36:16;29.40;;;22.67;;
2055;SDS011;1033;52.560;13.374;2023-05-23T13:38:45;27.50;;;22.70;;
2055;SDS011;1033;52.560;13.374;2023-05-23T13:41:16;29.43;;;23.30;;
2055;SDS011;1033;52.560;13.374;2023-05-23T13:43:45;27.60;;;21.67;;
2055;SDS011;1033;52.560;13.374;2023-05-23T13:46:14;32.57;;;20.83;;
2055;SDS011;1033;52.560;13.374;2023-05-23T13:48:43;25.97;;;20.40;;
2055;SDS011;1033;52.560;13.374;2023-05-23T13:51:13;25.20;;;19.53;;
2055;SDS011;1033;52.560;13.374;2023-05-23T13:53:42;26.80;;;19.50;;
2055;SDS011;1033;52.560;13.374;2023-05-23T13:56:11;29.30;;;22.20;;
2055;SDS011;1033;52.560;13.374;2023-05-23T13:58:43;33.10;;;22.03;;
2055;SDS011;1033;52.560;13.374;2023-05-23T14:01:13;30.07;;;22.27;;
2055;SDS011;1033;52.560;13.374;2023-05-23T14:03:42;27.60;;;21.10;;
2055;SDS011;1033;52.560;13.374;2023-05-23T14:06:12;27.33;;;21.40;;
2055;SDS011;1033;52.560;13.374;2023-05-23T14:08:41;29.97;;;22.60;;
2055;SDS011;1033;52.560;13.374;2023-05-23T14:11:10;30.10;;;22.93;;
2055;SDS011;1033;52.560;13.374;2023-05-23T14:13:39;28.80;;;21.87;;
2055;SDS011;1033;52.560;13.374;2023-05-23T14:16:09;27.97;;;19.83;;
2055;SDS011;1033;52.560;13.374;2023-05-23T14:18:38;28.37;;;21.50;;
2055;SDS011;1033;52.560;13.374;2023-05-23T14:21:08;23.30;;;20.40;;
2055;SDS011;1033;52.560;13.374;2023-05-23T14:23:37;28.50;;;20.97;;
2055;SDS011;1033;52.560;13.374;2023-05-23T14:26:06;27.30;;;20.90;;
2055;SDS011;1033;52.560;13.374;2023-05-23T14:28:35;30.00;;;21.43;;
2055;SDS011;1033;52.560;13.374;2023-05-23T14:31:04;26.20;;;19.90;;
2055;SDS011;1033;52.560;13.374;2023-05-23T14:33:35;26.10;;;18.50;;
2055;SDS011;1033;52.560;13.374;2023-05-23T14:36:04;24.80;;;17.77;;
2055;SDS011;1033;52.560;13.374;2023-05-23T14:38:34;21.37;;;17.57;;
2055;SDS011;1033;52.560;13.374;2023-05-23T14:41:05;23.13;;;18.80;;
2055;SDS011;1033;52.560;13.374;2023-05-23T14:43:34;21.63;;;17.00;;
2055;SDS011;1033;52.560;13.374;2023-05-23T14:46:03;24.93;;;17.87;;
2055;SDS011;1033;52.560;13.374;2023-05-23T14:48:34;21.77;;;16.33;;
2055;SDS011;1033;52.560;13.374;2023-05-23T14:51:03;22.97;;;17.80;;
2055;SDS011;1033;52.560;13.374;2023-05-23T14:53:33;23.80;;;18.37;;
2055;SDS011;1033;52.560;13.374;2023-05-23T14:56:03;19.50;;;17.43;;
2055;SDS011;1033;52.560;13.374;2023-05-23T14:58:32;17.40;;;15.63;;
2055;SDS011;1033;52.560;13.374;2023-05-23T15:01:01;15.30;;;11.00;;
2055;SDS011;1033;52.560;13.374;2023-05-23T15:03:31;14.70;;;13.20;;
2055;SDS011;1033;52.560;13.374;2023-05-23T15:06:01;14.23;;;12.70;;
2055;SDS011;1033;52.560;13.374;2023-05-23T15:08:32;16.70;;;11.33;;
2055;SDS011;1033;52.560;13.374;2023-05-23T15:11:02;11.60;;;10.20;;
2055;SDS011;1033;52.560;13.374;2023-05-23T15:13:31;12.77;;;10.07;;
2055;SDS011;1033;52.560;13.374;2023-05-23T15:16:00;10.70;;;9.70;;
2055;SDS011;1033;52.560;13.374;2023-05-23T15:18:29;12.57;;;9.73;;
2055;SDS011;1033;52.560;13.374;2023-05-23T15:21:08;10.70;;;9.60;;
2055;SDS011;1033;52.560;13.374;2023-05-23T15:23:38;11.00;;;9.50;;
2055;SDS011;1033;52.560;13.374;2023-05-23T15:26:08;15.60;;;11.50;;